Shin Mei Maru — JG5617 — position and weather

sailwx.info

Track history (hours):
 
Tides and Currents Weather Stations Pressure Air Temp Water Temp Dewpoint Dewpoint Depression Visibility Wind Speed Wind Dir Waves Ship Positions

Shin Mei Maru

Last reported at 2017-Dec-11 08:03 UTC. Time now 2017-Dec-11 09:45 UTC.
Position N 35°38' E 139°46'.

Length 160 m; draft 6.9 m.

Type: Cargo ship. MMSI: 431100922.

Date/timePositionNaut miles runAvg speedWind from/ knotsBaromVisibWave heightAir tempDewpointWater temp
2017-Dec-11 08:03N 35°38' E 139°46'0 0.0
2017-Dec-11 07:45N 35°38' E 139°46'0 0.0
2017-Dec-11 06:18N 35°38' E 139°46'0 0.0
2017-Dec-11 05:57N 35°38' E 139°46'0 0.0
2017-Dec-11 05:18N 35°38' E 139°46'0 0.0
2017-Dec-11 04:15N 35°38' E 139°46'0 0.0
2017-Dec-11 03:57N 35°38' E 139°46'0 0.0
2017-Dec-11 02:39N 35°38' E 139°46'0 0.0
2017-Dec-11 02:24N 35°38' E 139°46'0 0.0
2017-Dec-11 00:57N 35°38' E 139°46'0 0.0
2017-Dec-11 00:30N 35°38' E 139°46'0 0.0
2017-Dec-10 23:34N 35°38' E 139°46'0 0.0
2017-Dec-10 23:29N 35°38' E 139°46'4 8.2
2017-Dec-10 23:01N 35°35' E 139°48'714.2
2017-Dec-10 22:31N 35°28' E 139°51'815.6
2017-Dec-10 22:01N 35°22' E 139°45'611.6
2017-Dec-10 21:30N 35°16' E 139°47'713.3
2017-Dec-10 21:00N 35°09' E 139°47'917.8
2017-Dec-10 20:30N 35°01' E 139°44'815.7
2017-Dec-10 20:00N 34°53' E 139°43'715.0
2017-Dec-10 19:30N 34°50' E 139°51'815.6
2017-Dec-10 19:00N 34°53' E 140°00'815.5
2017-Dec-10 18:30N 34°56' E 140°09'815.0
2017-Dec-10 17:59N 35°00' E 140°17'399 8.1
2017-Dec-08 16:55N 41°33' E 141°46'39516.3
2017-Dec-07 16:39N 35°03' E 140°23'817.4
2017-Dec-07 16:12N 34°59' E 140°15'417.5
2017-Dec-07 15:59N 34°57' E 140°11'1019.9
2017-Dec-07 15:30N 34°53' E 140°01'919.0
2017-Dec-07 15:01N 34°51' E 139°50'918.6
2017-Dec-07 14:30N 34°58' E 139°42'918.2
2017-Dec-07 14:00N 35°07' E 139°44'816.0
2017-Dec-07 13:31N 35°15' E 139°46'612.7
2017-Dec-07 13:00N 35°20' E 139°42'816.5
2017-Dec-07 12:31N 35°27' E 139°48'713.8
2017-Dec-07 12:01N 35°34' E 139°48'4 8.3
2017-Dec-07 11:30N 35°38' E 139°46'0 0.0
2017-Dec-07 10:48N 35°38' E 139°46'0 0.0
2017-Dec-07 09:21N 35°38' E 139°46'0 0.0
2017-Dec-07 08:00N 35°38' E 139°46'0 0.0
2017-Dec-07 07:27N 35°38' E 139°46'0 0.0
2017-Dec-07 06:48N 35°38' E 139°46'0 0.0
2017-Dec-07 06:30N 35°38' E 139°46'0 0.0
2017-Dec-07 05:45N 35°38' E 139°46'0 0.0
2017-Dec-07 05:30N 35°38' E 139°46'0 0.0
2017-Dec-07 05:00N 35°38' E 139°46'0 0.0
2017-Dec-07 04:15N 35°38' E 139°46'0 0.0
2017-Dec-07 03:54N 35°38' E 139°46'0 0.0
2017-Dec-07 02:42N 35°38' E 139°46'0 0.0
2017-Dec-07 02:30N 35°38' E 139°46'0 0.0
2017-Dec-07 01:51N 35°38' E 139°46'0 0.0
2017-Dec-07 00:06N 35°38' E 139°46'0 0.0
2017-Dec-07 00:00N 35°38' E 139°46'0 0.4
2017-Dec-06 23:30N 35°38' E 139°46'5 9.4
2017-Dec-06 23:00N 35°34' E 139°49'611.4
2017-Dec-06 22:31N 35°29' E 139°51'815.7
2017-Dec-06 22:00N 35°22' E 139°45'510.7
2017-Dec-06 21:30N 35°17' E 139°45'510.4
2017-Dec-06 21:00N 35°12' E 139°47'  
2017-Dec-01 17:05N 35°04' E 140°26'315.7
2017-Dec-01 16:54N 35°03' E 140°23'715.9
2017-Dec-01 16:26N 34°59' E 140°15'717.1
2017-Dec-01 16:00N 34°55' E 140°07'1316.6
2017-Dec-01 15:13N 34°51' E 139°52'315.6
2017-Dec-01 15:00N 34°52' E 139°48'817.0
2017-Dec-01 14:30N 34°58' E 139°42'917.2
2017-Dec-01 14:00N 35°07' E 139°44'816.1
2017-Dec-01 13:31N 35°15' E 139°46'612.7
2017-Dec-01 13:00N 35°20' E 139°42'713.9
2017-Dec-01 12:31N 35°27' E 139°46'815.2
2017-Dec-01 12:01N 35°33' E 139°50'611.1
2017-Dec-01 11:30N 35°38' E 139°46'0 0.1
2017-Dec-01 10:59N 35°38' E 139°46'0 0.0
2017-Dec-01 10:29N 35°38' E 139°46'0 0.0
2017-Dec-01 09:59N 35°38' E 139°46'0 0.0
2017-Dec-01 09:29N 35°38' E 139°46'0 0.0
2017-Dec-01 08:59N 35°38' E 139°46'0 0.0
2017-Dec-01 08:29N 35°38' E 139°46'  
Track history (hours):
 
Tides and Currents Weather Stations Pressure Air Temp Water Temp Dewpoint Dewpoint Depression Visibility Wind Speed Wind Dir Waves Ship Positions

Shin Mei Maru

Last reported at 2017-Dec-11 08:03 UTC. Time now 2017-Dec-11 09:45 UTC.
Position N 35°38' E 139°46'.

Length 160 m; draft 6.9 m.

Type: Cargo ship. MMSI: 431100922.

Date/timePositionNaut miles runAvg speedWind from/ knotsBaromVisibWave heightAir tempDewpointWater temp
2017-Dec-11 08:03N 35°38' E 139°46'0 0.0
2017-Dec-11 07:45N 35°38' E 139°46'0 0.0
2017-Dec-11 06:18N 35°38' E 139°46'0 0.0
2017-Dec-11 05:57N 35°38' E 139°46'0 0.0
2017-Dec-11 05:18N 35°38' E 139°46'0 0.0
2017-Dec-11 04:15N 35°38' E 139°46'0 0.0
2017-Dec-11 03:57N 35°38' E 139°46'0 0.0
2017-Dec-11 02:39N 35°38' E 139°46'0 0.0
2017-Dec-11 02:24N 35°38' E 139°46'0 0.0
2017-Dec-11 00:57N 35°38' E 139°46'0 0.0
2017-Dec-11 00:30N 35°38' E 139°46'0 0.0
2017-Dec-10 23:34N 35°38' E 139°46'0 0.0
2017-Dec-10 23:29N 35°38' E 139°46'4 8.2
2017-Dec-10 23:01N 35°35' E 139°48'714.2
2017-Dec-10 22:31N 35°28' E 139°51'815.6
2017-Dec-10 22:01N 35°22' E 139°45'611.6
2017-Dec-10 21:30N 35°16' E 139°47'713.3
2017-Dec-10 21:00N 35°09' E 139°47'917.8
2017-Dec-10 20:30N 35°01' E 139°44'815.7
2017-Dec-10 20:00N 34°53' E 139°43'715.0
2017-Dec-10 19:30N 34°50' E 139°51'815.6
2017-Dec-10 19:00N 34°53' E 140°00'815.5
2017-Dec-10 18:30N 34°56' E 140°09'815.0
2017-Dec-10 17:59N 35°00' E 140°17'399 8.1
2017-Dec-08 16:55N 41°33' E 141°46'39516.3
2017-Dec-07 16:39N 35°03' E 140°23'817.4
2017-Dec-07 16:12N 34°59' E 140°15'417.5
2017-Dec-07 15:59N 34°57' E 140°11'1019.9
2017-Dec-07 15:30N 34°53' E 140°01'919.0
2017-Dec-07 15:01N 34°51' E 139°50'918.6
2017-Dec-07 14:30N 34°58' E 139°42'918.2
2017-Dec-07 14:00N 35°07' E 139°44'816.0
2017-Dec-07 13:31N 35°15' E 139°46'612.7
2017-Dec-07 13:00N 35°20' E 139°42'816.5
2017-Dec-07 12:31N 35°27' E 139°48'713.8
2017-Dec-07 12:01N 35°34' E 139°48'4 8.3
2017-Dec-07 11:30N 35°38' E 139°46'0 0.0
2017-Dec-07 10:48N 35°38' E 139°46'0 0.0
2017-Dec-07 09:21N 35°38' E 139°46'0 0.0
2017-Dec-07 08:00N 35°38' E 139°46'0 0.0
2017-Dec-07 07:27N 35°38' E 139°46'0 0.0
2017-Dec-07 06:48N 35°38' E 139°46'0 0.0
2017-Dec-07 06:30N 35°38' E 139°46'0 0.0
2017-Dec-07 05:45N 35°38' E 139°46'0 0.0
2017-Dec-07 05:30N 35°38' E 139°46'0 0.0
2017-Dec-07 05:00N 35°38' E 139°46'0 0.0
2017-Dec-07 04:15N 35°38' E 139°46'0 0.0
2017-Dec-07 03:54N 35°38' E 139°46'0 0.0
2017-Dec-07 02:42N 35°38' E 139°46'0 0.0
2017-Dec-07 02:30N 35°38' E 139°46'0 0.0
2017-Dec-07 01:51N 35°38' E 139°46'0 0.0
2017-Dec-07 00:06N 35°38' E 139°46'0 0.0
2017-Dec-07 00:00N 35°38' E 139°46'0 0.4
2017-Dec-06 23:30N 35°38' E 139°46'5 9.4
2017-Dec-06 23:00N 35°34' E 139°49'611.4
2017-Dec-06 22:31N 35°29' E 139°51'815.7
2017-Dec-06 22:00N 35°22' E 139°45'510.7
2017-Dec-06 21:30N 35°17' E 139°45'510.4
2017-Dec-06 21:00N 35°12' E 139°47'  
2017-Dec-01 17:05N 35°04' E 140°26'315.7
2017-Dec-01 16:54N 35°03' E 140°23'715.9
2017-Dec-01 16:26N 34°59' E 140°15'717.1
2017-Dec-01 16:00N 34°55' E 140°07'1316.6
2017-Dec-01 15:13N 34°51' E 139°52'315.6
2017-Dec-01 15:00N 34°52' E 139°48'817.0
2017-Dec-01 14:30N 34°58' E 139°42'917.2
2017-Dec-01 14:00N 35°07' E 139°44'816.1
2017-Dec-01 13:31N 35°15' E 139°46'612.7
2017-Dec-01 13:00N 35°20' E 139°42'713.9
2017-Dec-01 12:31N 35°27' E 139°46'815.2
2017-Dec-01 12:01N 35°33' E 139°50'611.1
2017-Dec-01 11:30N 35°38' E 139°46'0 0.1
2017-Dec-01 10:59N 35°38' E 139°46'0 0.0
2017-Dec-01 10:29N 35°38' E 139°46'0 0.0
2017-Dec-01 09:59N 35°38' E 139°46'0 0.0
2017-Dec-01 09:29N 35°38' E 139°46'0 0.0
2017-Dec-01 08:59N 35°38' E 139°46'0 0.0
2017-Dec-01 08:29N 35°38' E 139°46'  

Dump ship's entire track history